createdAt,value
2022-12-29T00:00:26.922Z,55.17
2022-12-29T00:02:29.182Z,55.16
2022-12-29T00:04:31.675Z,54.76
2022-12-29T00:06:34.360Z,55.00
2022-12-29T00:08:42.637Z,55.07
2022-12-29T00:10:45.029Z,54.99
2022-12-29T00:13:05.447Z,54.97
2022-12-29T00:15:26.308Z,54.82
2022-12-29T00:17:28.417Z,55.37
2022-12-29T00:19:49.121Z,55.11
2022-12-29T00:22:09.654Z,55.17
2022-12-29T00:24:27.421Z,55.13
2022-12-29T00:26:49.883Z,55.02
2022-12-29T00:29:10.929Z,55.08
2022-12-29T00:31:32.101Z,54.96
2022-12-29T00:33:53.325Z,54.63
2022-12-29T00:36:01.844Z,54.41
2022-12-29T00:38:35.077Z,54.53
2022-12-29T00:40:59.054Z,54.52
2022-12-29T00:43:19.705Z,54.56
2022-12-29T00:45:22.048Z,55.20
2022-12-29T00:47:24.140Z,54.92
2022-12-29T00:49:34.925Z,55.17
2022-12-29T00:51:36.947Z,55.03
2022-12-29T00:53:39.069Z,54.95
2022-12-29T00:55:41.510Z,54.96
2022-12-29T00:57:43.527Z,54.93
2022-12-29T00:59:46.390Z,54.71
2022-12-29T01:01:53.543Z,55.24
2022-12-29T01:04:00.259Z,54.95
2022-12-29T01:06:08.749Z,54.85
2022-12-29T01:08:12.942Z,54.71
2022-12-29T01:10:16.293Z,54.60
2022-12-29T01:12:38.585Z,54.84
2022-12-29T01:14:40.708Z,54.46
2022-12-29T01:16:42.795Z,54.67
2022-12-29T01:18:45.320Z,54.41
2022-12-29T01:20:47.394Z,54.48
2022-12-29T01:22:49.349Z,54.95
2022-12-29T01:24:55.027Z,54.76
2022-12-29T01:26:56.959Z,54.70
2022-12-29T01:28:58.931Z,54.99
2022-12-29T01:31:02.740Z,54.71
2022-12-29T01:33:04.811Z,54.53
2022-12-29T01:35:07.221Z,54.54
2022-12-29T01:37:10.753Z,54.64
2022-12-29T01:39:13.283Z,54.25
2022-12-29T01:41:17.693Z,54.47
2022-12-29T01:43:21.155Z,54.42
2022-12-29T01:45:23.292Z,54.72
2022-12-29T01:47:46.335Z,54.32
2022-12-29T01:49:48.869Z,54.51
2022-12-29T01:52:00.581Z,54.26
2022-12-29T01:54:06.387Z,54.05
2022-12-29T01:56:13.813Z,54.44
2022-12-29T01:58:20.428Z,54.26
2022-12-29T02:00:22.965Z,54.32
2022-12-29T02:02:26.120Z,54.13
2022-12-29T02:04:32.580Z,53.78
2022-12-29T02:06:43.200Z,53.81
2022-12-29T02:08:48.478Z,53.78
2022-12-29T02:10:50.585Z,54.01
2022-12-29T02:12:53.941Z,53.61
2022-12-29T02:15:01.636Z,53.53
2022-12-29T02:17:28.453Z,53.97
2022-12-29T02:19:46.456Z,54.08
2022-12-29T02:22:20.629Z,54.14
2022-12-29T02:25:07.696Z,53.42
2022-12-29T02:27:27.738Z,53.78
2022-12-29T02:29:35.835Z,53.74
2022-12-29T02:32:00.116Z,53.52
2022-12-29T02:34:23.347Z,53.73
2022-12-29T02:36:36.635Z,53.74
2022-12-29T02:38:44.441Z,53.18
2022-12-29T02:40:59.417Z,53.26
2022-12-29T02:43:08.247Z,53.18
2022-12-29T02:45:22.448Z,53.18
2022-12-29T02:47:47.362Z,52.92
2022-12-29T02:49:54.759Z,53.09
2022-12-29T02:52:17.910Z,52.86
2022-12-29T02:54:39.320Z,52.70
2022-12-29T02:56:43.209Z,52.69
2022-12-29T02:58:46.361Z,52.71
2022-12-29T03:00:57.759Z,52.77
2022-12-29T03:03:20.068Z,52.60
2022-12-29T03:05:43.098Z,52.35
2022-12-29T03:07:59.846Z,52.64
2022-12-29T03:10:33.109Z,52.45
2022-12-29T03:13:12.684Z,52.34
2022-12-29T03:15:59.551Z,52.25
2022-12-29T03:18:22.920Z,52.37
2022-12-29T03:20:33.025Z,52.11
2022-12-29T03:22:40.962Z,52.16
2022-12-29T03:24:50.675Z,52.09
2022-12-29T03:26:57.717Z,52.61
2022-12-29T03:29:04.998Z,52.66
2022-12-29T03:31:09.416Z,52.61
2022-12-29T03:33:15.787Z,52.45
2022-12-29T03:35:22.169Z,52.18
2022-12-29T03:37:29.956Z,52.00
2022-12-29T03:39:33.866Z,52.18
2022-12-29T03:41:37.718Z,52.14
2022-12-29T03:43:39.710Z,52.26
2022-12-29T03:45:42.352Z,51.91
2022-12-29T03:47:45.389Z,52.03
2022-12-29T03:49:48.668Z,52.17
2022-12-29T03:51:52.068Z,52.13
2022-12-29T03:53:55.266Z,52.01
2022-12-29T03:55:57.644Z,51.63
2022-12-29T03:58:00.339Z,51.65
2022-12-29T04:00:20.911Z,51.71
2022-12-29T04:02:25.836Z,51.62
2022-12-29T04:04:29.113Z,51.75
2022-12-29T04:06:33.895Z,51.38
2022-12-29T04:08:39.774Z,51.49
2022-12-29T04:10:42.817Z,51.67
2022-12-29T04:12:46.910Z,51.75
2022-12-29T04:14:50.044Z,51.78
2022-12-29T04:16:53.524Z,51.40
2022-12-29T04:18:55.805Z,51.32
2022-12-29T04:21:01.837Z,51.15
2022-12-29T04:23:06.452Z,51.47
2022-12-29T04:25:10.390Z,51.30
2022-12-29T04:27:14.204Z,51.60
2022-12-29T04:29:50.830Z,51.71
2022-12-29T04:32:22.139Z,51.85
2022-12-29T04:34:28.477Z,51.62
2022-12-29T04:36:31.117Z,51.89
2022-12-29T04:38:33.824Z,51.87
2022-12-29T04:40:43.964Z,51.93
2022-12-29T04:42:46.547Z,51.55
2022-12-29T04:44:48.825Z,51.41
2022-12-29T04:47:24.878Z,51.15
2022-12-29T04:49:58.121Z,51.35
2022-12-29T04:52:09.564Z,51.14
2022-12-29T04:54:13.072Z,51.26
2022-12-29T04:56:15.839Z,50.88
2022-12-29T04:58:22.803Z,50.85
2022-12-29T05:00:26.546Z,50.60
2022-12-29T05:02:31.815Z,50.80
2022-12-29T05:04:34.384Z,50.65
2022-12-29T05:06:36.453Z,50.62
2022-12-29T05:08:38.642Z,50.68
2022-12-29T05:10:41.500Z,50.58
2022-12-29T05:12:47.310Z,50.46
2022-12-29T05:14:50.078Z,50.62
2022-12-29T05:16:52.339Z,49.95
2022-12-29T05:18:55.044Z,50.69
2022-12-29T05:20:57.554Z,50.18
2022-12-29T05:22:59.680Z,50.21
2022-12-29T05:26:01.101Z,49.91
2022-12-29T05:28:08.595Z,50.54
2022-12-29T05:30:18.014Z,50.32
2022-12-29T05:32:20.524Z,50.24
2022-12-29T05:38:15.479Z,49.78
2022-12-29T05:40:20.146Z,49.91
2022-12-29T05:42:23.128Z,49.41
2022-12-29T05:44:37.532Z,49.81
2022-12-29T05:46:48.934Z,49.70
2022-12-29T05:49:08.922Z,49.54
2022-12-29T05:51:25.827Z,49.57
2022-12-29T05:53:29.452Z,49.75
2022-12-29T05:55:32.595Z,49.82
2022-12-29T05:57:35.726Z,49.79
2022-12-29T05:59:49.491Z,49.79
2022-12-29T06:01:51.742Z,49.54
2022-12-29T06:03:54.363Z,49.74
2022-12-29T06:05:56.786Z,50.16
2022-12-29T06:07:58.994Z,50.38
2022-12-29T06:10:01.101Z,50.12
2022-12-29T06:12:08.166Z,50.21
2022-12-29T06:14:10.859Z,49.88
2022-12-29T06:16:13.148Z,49.82
2022-12-29T06:18:19.872Z,49.81
2022-12-29T06:20:23.048Z,49.42
2022-12-29T06:22:25.346Z,49.95
2022-12-29T06:24:27.372Z,49.78
2022-12-29T06:26:30.439Z,49.90
2022-12-29T06:28:32.814Z,49.80
2022-12-29T06:30:34.988Z,50.17
2022-12-29T06:32:38.119Z,49.73
2022-12-29T06:34:43.234Z,49.73
2022-12-29T06:36:45.290Z,49.32
2022-12-29T06:38:47.549Z,48.98
2022-12-29T06:40:49.547Z,49.10
2022-12-29T06:43:00.785Z,48.67
2022-12-29T06:45:16.762Z,49.02
2022-12-29T06:47:19.815Z,49.32
2022-12-29T06:49:22.249Z,48.55
2022-12-29T06:51:27.635Z,48.50
2022-12-29T06:53:29.733Z,48.83
2022-12-29T06:55:34.474Z,48.16
2022-12-29T06:57:36.528Z,48.39
2022-12-29T06:59:38.616Z,48.82
2022-12-29T07:01:40.714Z,48.50
2022-12-29T07:03:44.435Z,48.58
2022-12-29T07:05:46.291Z,48.07
2022-12-29T07:07:48.359Z,47.96
2022-12-29T07:09:50.288Z,48.22
2022-12-29T07:11:52.357Z,48.18
2022-12-29T07:13:54.756Z,47.76
2022-12-29T07:15:56.988Z,48.09
2022-12-29T07:17:58.838Z,47.54
2022-12-29T07:20:01.092Z,48.21
2022-12-29T07:22:03.197Z,48.20
2022-12-29T07:24:05.923Z,47.86
2022-12-29T07:26:10.911Z,48.31
2022-12-29T07:28:14.168Z,47.35
2022-12-29T07:30:16.431Z,47.42
2022-12-29T07:32:19.769Z,47.34
2022-12-29T07:34:21.924Z,47.35
2022-12-29T07:36:27.991Z,47.63
2022-12-29T07:38:32.982Z,47.47
2022-12-29T07:40:35.791Z,46.65
2022-12-29T07:42:38.109Z,46.93
2022-12-29T07:44:43.509Z,47.12
2022-12-29T07:46:54.558Z,46.79
2022-12-29T07:48:59.299Z,46.10
2022-12-29T07:51:01.526Z,46.48
2022-12-29T07:53:04.718Z,45.09
2022-12-29T07:55:07.442Z,45.28
2022-12-29T07:57:09.518Z,46.66
2022-12-29T07:59:13.254Z,47.23
2022-12-29T08:01:15.496Z,47.08
2022-12-29T08:03:17.694Z,48.26
2022-12-29T08:05:20.158Z,48.51
2022-12-29T08:07:22.512Z,48.09
2022-12-29T08:09:24.839Z,48.54
2022-12-29T08:11:27.003Z,48.46
2022-12-29T08:13:28.908Z,47.97
2022-12-29T08:15:32.730Z,47.85
2022-12-29T08:17:35.354Z,47.04
2022-12-29T08:19:38.405Z,47.54
2022-12-29T08:21:40.956Z,47.37
2022-12-29T08:23:43.107Z,46.72
2022-12-29T08:25:45.416Z,47.47
2022-12-29T08:27:47.706Z,47.24
2022-12-29T08:29:49.943Z,47.18
2022-12-29T08:31:52.069Z,47.31
2022-12-29T08:33:54.000Z,47.03
2022-12-29T08:36:07.034Z,46.58
2022-12-29T08:38:08.999Z,46.66
2022-12-29T08:40:11.495Z,47.07
2022-12-29T08:42:13.781Z,46.12
2022-12-29T08:44:19.031Z,46.35
2022-12-29T08:46:21.363Z,46.74
2022-12-29T08:48:23.662Z,46.34
2022-12-29T08:50:25.981Z,47.01
2022-12-29T08:52:27.999Z,45.54
2022-12-29T08:54:30.188Z,47.01
2022-12-29T08:56:32.942Z,47.34
2022-12-29T08:58:37.907Z,47.25
2022-12-29T09:00:39.826Z,46.82
2022-12-29T09:02:42.033Z,46.90
2022-12-29T09:04:44.108Z,46.27
2022-12-29T09:06:46.474Z,46.35
2022-12-29T09:08:48.988Z,45.73
2022-12-29T09:10:51.781Z,45.24
2022-12-29T09:12:53.681Z,45.80
2022-12-29T09:14:56.002Z,45.42
2022-12-29T09:17:16.422Z,45.53
2022-12-29T09:19:18.583Z,45.93
2022-12-29T09:21:21.488Z,46.93
2022-12-29T09:23:45.730Z,46.90
2022-12-29T09:25:48.771Z,47.23
2022-12-29T09:27:53.568Z,47.33
2022-12-29T09:29:56.636Z,47.36
2022-12-29T09:31:58.633Z,47.86
2022-12-29T09:34:00.850Z,48.69
2022-12-29T09:36:03.568Z,48.42
2022-12-29T09:38:05.820Z,47.51
2022-12-29T09:40:19.826Z,48.40
2022-12-29T09:42:51.833Z,48.51
2022-12-29T09:45:06.258Z,48.16
2022-12-29T09:47:12.931Z,48.28
2022-12-29T09:49:21.232Z,48.08
2022-12-29T09:51:25.645Z,47.98
2022-12-29T09:53:35.700Z,47.84
2022-12-29T09:55:47.176Z,48.08
2022-12-29T09:58:01.117Z,47.78
2022-12-29T10:00:12.676Z,46.17
2022-12-29T10:02:35.790Z,46.94
2022-12-29T10:04:45.679Z,47.39
2022-12-29T10:07:29.654Z,47.27
2022-12-29T10:09:38.327Z,46.27
2022-12-29T10:12:11.183Z,46.49
2022-12-29T10:14:21.896Z,46.80
2022-12-29T10:16:45.453Z,45.98
2022-12-29T10:19:07.311Z,45.56
2022-12-29T10:21:12.356Z,45.48
2022-12-29T10:23:26.776Z,45.96
2022-12-29T10:25:35.632Z,46.19
2022-12-29T10:27:38.476Z,45.76
2022-12-29T10:29:53.458Z,45.48
2022-12-29T10:32:07.303Z,44.05
2022-12-29T10:34:23.671Z,45.29
2022-12-29T10:36:31.385Z,44.94
2022-12-29T10:38:48.497Z,44.76
2022-12-29T10:41:06.712Z,44.43
2022-12-29T10:43:27.315Z,44.24
2022-12-29T10:45:33.153Z,45.21
2022-12-29T10:47:43.104Z,44.73
2022-12-29T10:49:48.544Z,45.20
2022-12-29T10:51:53.239Z,45.76
2022-12-29T10:54:12.511Z,44.89
2022-12-29T10:56:26.530Z,45.55
2022-12-29T10:58:31.518Z,46.22
2022-12-29T11:00:34.886Z,46.79
2022-12-29T11:02:46.235Z,47.03
2022-12-29T11:05:06.579Z,46.43
2022-12-29T11:07:15.604Z,46.61
2022-12-29T11:09:41.565Z,46.32
2022-12-29T11:11:44.875Z,46.79
2022-12-29T11:13:51.135Z,46.80
2022-12-29T11:15:53.663Z,46.71
2022-12-29T11:18:00.679Z,46.04
2022-12-29T11:20:30.198Z,45.38
2022-12-29T11:22:38.454Z,46.22
2022-12-29T11:24:48.324Z,46.25
2022-12-29T11:26:54.333Z,46.05
2022-12-29T11:29:18.174Z,45.55
2022-12-29T11:31:23.220Z,45.71
2022-12-29T11:33:29.136Z,46.34
2022-12-29T11:35:37.994Z,46.14
2022-12-29T11:37:44.778Z,46.36
2022-12-29T11:39:58.655Z,46.53
2022-12-29T11:42:03.819Z,46.15
2022-12-29T11:44:10.336Z,46.20
2022-12-29T11:46:27.029Z,46.18
2022-12-29T11:48:33.503Z,46.04
2022-12-29T11:50:40.326Z,46.14
2022-12-29T11:52:43.569Z,46.65
2022-12-29T11:54:45.552Z,46.44
2022-12-29T11:56:48.241Z,46.65
2022-12-29T11:58:51.599Z,46.57
2022-12-29T12:00:53.908Z,46.44
2022-12-29T12:03:01.873Z,46.31
2022-12-29T12:05:12.643Z,46.09
2022-12-29T12:07:38.151Z,46.11
2022-12-29T12:09:50.367Z,45.66
2022-12-29T12:11:56.766Z,45.85
2022-12-29T12:13:58.876Z,46.33
2022-12-29T12:16:15.464Z,46.27
2022-12-29T12:18:32.684Z,46.05
2022-12-29T12:20:51.314Z,45.96
2022-12-29T12:23:20.176Z,46.15
2022-12-29T12:25:32.200Z,46.42
2022-12-29T12:27:41.308Z,46.04
2022-12-29T12:30:07.030Z,45.93
2022-12-29T12:32:44.243Z,44.85
2022-12-29T12:34:49.022Z,44.96
2022-12-29T12:36:57.542Z,45.52
2022-12-29T12:39:09.995Z,45.56
2022-12-29T12:41:21.931Z,45.53
2022-12-29T12:44:01.401Z,45.34
2022-12-29T12:46:37.541Z,45.28
2022-12-29T12:49:02.699Z,45.96
2022-12-29T12:51:24.792Z,45.83
2022-12-29T12:53:33.136Z,45.86
2022-12-29T12:55:57.385Z,46.28
2022-12-29T12:58:11.731Z,45.97
2022-12-29T13:00:20.935Z,46.33
2022-12-29T13:02:47.575Z,46.25
2022-12-29T13:05:06.623Z,46.14
2022-12-29T13:07:19.406Z,46.23
2022-12-29T13:09:32.939Z,46.42
2022-12-29T13:12:00.995Z,46.43
2022-12-29T13:14:37.004Z,46.49
2022-12-29T13:16:55.011Z,46.70
2022-12-29T13:19:12.151Z,46.10
2022-12-29T13:21:40.574Z,46.38
2022-12-29T13:23:56.288Z,46.19
2022-12-29T13:26:37.221Z,46.68
2022-12-29T13:29:35.046Z,46.39
2022-12-29T13:31:42.358Z,47.19
2022-12-29T13:34:17.775Z,47.21
2022-12-29T13:40:20.028Z,46.67
2022-12-29T13:42:24.088Z,47.31
2022-12-29T13:44:50.093Z,47.08
2022-12-29T13:46:53.100Z,47.43
2022-12-29T13:49:20.330Z,47.36
2022-12-29T13:51:27.951Z,47.14
2022-12-29T13:53:55.916Z,47.68
2022-12-29T13:56:32.391Z,47.15
2022-12-29T13:58:58.739Z,47.49
2022-12-29T14:01:09.220Z,47.71
2022-12-29T14:03:45.409Z,47.97
2022-12-29T14:06:06.096Z,48.14
2022-12-29T14:08:18.065Z,48.47
2022-12-29T14:10:29.689Z,48.66
2022-12-29T14:12:46.124Z,49.44
2022-12-29T14:14:48.701Z,49.11
2022-12-29T14:16:51.347Z,49.25
2022-12-29T14:18:55.374Z,49.55
2022-12-29T14:21:08.470Z,49.85
2022-12-29T14:23:10.545Z,50.12
2022-12-29T14:26:01.626Z,50.28
2022-12-29T14:28:24.006Z,51.16
2022-12-29T14:30:49.717Z,51.04
2022-12-29T14:33:15.711Z,51.47
2022-12-29T14:35:40.594Z,51.20
2022-12-29T14:37:42.642Z,50.49
2022-12-29T14:39:46.196Z,51.07
2022-12-29T14:41:48.504Z,50.88
2022-12-29T14:44:18.843Z,50.64
2022-12-29T14:46:21.401Z,50.80
2022-12-29T14:48:44.771Z,50.59
2022-12-29T14:50:47.648Z,50.78
2022-12-29T14:53:03.145Z,50.61
2022-12-29T14:55:18.777Z,51.11
2022-12-29T14:57:27.092Z,50.67
2022-12-29T14:59:33.478Z,50.83
2022-12-29T15:01:52.330Z,51.38
2022-12-29T15:04:04.653Z,51.26
2022-12-29T15:06:17.828Z,51.79
2022-12-29T15:08:31.249Z,51.87
2022-12-29T15:10:40.842Z,51.46
2022-12-29T15:12:52.778Z,51.52
2022-12-29T15:14:58.054Z,51.81
2022-12-29T15:17:01.135Z,51.52
2022-12-29T15:19:03.976Z,51.58
2022-12-29T15:21:07.915Z,51.34
2022-12-29T15:23:13.242Z,51.70
2022-12-29T15:25:19.012Z,51.58
2022-12-29T15:27:26.542Z,51.84
2022-12-29T15:29:45.916Z,51.26
2022-12-29T15:31:49.943Z,51.03
2022-12-29T15:33:54.444Z,50.86
2022-12-29T15:35:58.614Z,50.87
2022-12-29T15:38:01.143Z,50.81
2022-12-29T15:40:22.440Z,51.18
2022-12-29T15:42:52.401Z,51.23
2022-12-29T15:45:09.275Z,50.92
2022-12-29T15:47:22.920Z,51.03
2022-12-29T15:49:30.471Z,50.82
2022-12-29T15:51:39.660Z,51.29
2022-12-29T15:53:41.732Z,50.55
2022-12-29T15:55:45.360Z,50.53
2022-12-29T15:57:47.581Z,50.81
2022-12-29T15:59:49.810Z,50.95
2022-12-29T16:01:52.480Z,50.68
2022-12-29T16:03:55.698Z,50.30
2022-12-29T16:06:09.292Z,50.12
2022-12-29T16:08:41.290Z,50.57
2022-12-29T16:10:44.459Z,50.44
2022-12-29T16:12:46.542Z,50.25
2022-12-29T16:14:54.417Z,50.16
2022-12-29T16:17:00.592Z,50.27
2022-12-29T16:19:25.992Z,50.19
2022-12-29T16:21:31.165Z,49.95
2022-12-29T16:23:37.509Z,49.87
2022-12-29T16:25:42.063Z,50.29
2022-12-29T16:27:45.148Z,50.24
2022-12-29T16:29:50.882Z,50.71
2022-12-29T16:32:06.737Z,51.10
2022-12-29T16:34:26.262Z,51.81
2022-12-29T16:36:34.684Z,51.82
2022-12-29T16:38:36.748Z,51.86
2022-12-29T16:40:42.233Z,51.86
2022-12-29T16:42:50.592Z,52.37
2022-12-29T16:45:21.952Z,53.31
2022-12-29T16:47:24.802Z,52.67
2022-12-29T16:49:28.182Z,52.16
2022-12-29T16:51:33.371Z,52.15
2022-12-29T16:53:43.984Z,51.62
2022-12-29T16:55:53.737Z,51.88
2022-12-29T16:58:00.439Z,51.48
2022-12-29T17:00:07.836Z,51.56
2022-12-29T17:02:23.076Z,51.26
2022-12-29T17:04:25.393Z,51.11
2022-12-29T17:06:27.632Z,51.14
2022-12-29T17:08:29.582Z,51.35
2022-12-29T17:10:52.930Z,51.49
2022-12-29T17:12:55.536Z,51.34
2022-12-29T17:15:13.724Z,51.00
2022-12-29T17:17:25.526Z,51.31
2022-12-29T17:19:36.155Z,51.47
2022-12-29T17:21:38.261Z,51.11
2022-12-29T17:23:40.186Z,51.24
2022-12-29T17:25:42.691Z,51.15
2022-12-29T17:27:55.418Z,51.23
2022-12-29T17:30:04.999Z,51.75
2022-12-29T17:32:13.106Z,51.29
2022-12-29T17:34:15.653Z,51.39
2022-12-29T17:36:17.864Z,51.65
2022-12-29T17:38:31.403Z,51.93
2022-12-29T17:40:34.090Z,51.67
2022-12-29T17:42:44.324Z,52.15
2022-12-29T17:44:49.291Z,51.87
2022-12-29T17:46:51.213Z,52.13
2022-12-29T17:48:54.176Z,52.17
2022-12-29T17:50:58.305Z,52.46
2022-12-29T17:53:04.273Z,52.66
2022-12-29T17:55:06.613Z,52.58
2022-12-29T17:57:12.963Z,52.55
2022-12-29T17:59:15.633Z,52.64
2022-12-29T18:01:21.942Z,52.83
2022-12-29T18:03:41.656Z,53.08
2022-12-29T18:05:44.430Z,52.89
2022-12-29T18:07:47.020Z,52.56
2022-12-29T18:09:49.231Z,52.60
2022-12-29T18:11:51.178Z,52.80
2022-12-29T18:13:54.332Z,52.76
2022-12-29T18:15:57.543Z,52.96
2022-12-29T18:18:20.812Z,52.86
2022-12-29T18:20:26.039Z,52.72
2022-12-29T18:22:29.330Z,52.74
2022-12-29T18:24:31.289Z,52.56
2022-12-29T18:26:35.962Z,52.89
2022-12-29T18:28:38.130Z,53.06
2022-12-29T18:30:40.394Z,52.67
2022-12-29T18:32:42.827Z,52.90
2022-12-29T18:34:45.380Z,52.84
2022-12-29T18:36:47.797Z,52.64
2022-12-29T18:38:56.162Z,52.75
2022-12-29T18:41:00.320Z,52.62
2022-12-29T18:43:03.442Z,52.64
2022-12-29T18:45:26.003Z,53.15
2022-12-29T18:47:28.087Z,52.87
2022-12-29T18:49:30.435Z,53.12
2022-12-29T18:51:32.635Z,53.17
2022-12-29T18:53:37.778Z,53.52
2022-12-29T18:55:40.233Z,53.81
2022-12-29T18:57:42.257Z,54.08
2022-12-29T18:59:44.299Z,54.18
2022-12-29T19:01:46.549Z,54.48
2022-12-29T19:03:49.065Z,54.54
2022-12-29T19:05:51.223Z,54.68
2022-12-29T19:07:54.477Z,54.85
2022-12-29T19:10:03.611Z,55.10
2022-12-29T19:12:06.495Z,55.00
2022-12-29T19:14:17.713Z,55.57
2022-12-29T19:16:21.886Z,55.14
2022-12-29T19:18:48.748Z,55.13
2022-12-29T19:20:53.062Z,54.99
2022-12-29T19:22:56.306Z,54.70
2022-12-29T19:25:00.320Z,55.57
2022-12-29T19:27:02.609Z,55.14
2022-12-29T19:29:11.609Z,55.45
2022-12-29T19:31:13.842Z,54.69
2022-12-29T19:33:16.339Z,55.07
2022-12-29T19:35:19.595Z,55.51
2022-12-29T19:37:23.247Z,55.25
2022-12-29T19:39:25.468Z,55.58
2022-12-29T19:41:27.593Z,55.69
2022-12-29T19:43:29.896Z,55.72
2022-12-29T19:45:31.968Z,55.68
2022-12-29T19:47:35.122Z,55.93
2022-12-29T19:49:37.342Z,55.89
2022-12-29T19:51:39.429Z,55.95
2022-12-29T19:53:41.389Z,55.66
2022-12-29T19:55:48.134Z,55.91
2022-12-29T19:57:50.819Z,55.65
2022-12-29T19:59:55.141Z,55.61
2022-12-29T20:01:57.573Z,55.93
2022-12-29T20:04:02.293Z,56.24
2022-12-29T20:06:07.451Z,56.34
2022-12-29T20:08:09.958Z,56.08
2022-12-29T20:10:12.057Z,56.41
2022-12-29T20:12:14.276Z,56.48
2022-12-29T20:14:17.359Z,56.23
2022-12-29T20:16:20.857Z,56.28
2022-12-29T20:18:28.760Z,56.17
2022-12-29T20:20:34.462Z,56.69
2022-12-29T20:22:36.658Z,56.49
2022-12-29T20:24:45.201Z,56.55
2022-12-29T20:26:50.897Z,56.62
2022-12-29T20:28:53.697Z,56.68
2022-12-29T20:30:57.022Z,56.87
2022-12-29T20:33:03.322Z,57.20
2022-12-29T20:35:11.821Z,56.88
2022-12-29T20:37:15.350Z,56.96
2022-12-29T20:39:20.587Z,56.61
2022-12-29T20:41:23.111Z,56.76
2022-12-29T20:43:25.257Z,56.97
2022-12-29T20:45:27.337Z,56.92
2022-12-29T20:47:29.449Z,57.47
2022-12-29T20:49:31.790Z,56.87
2022-12-29T20:52:03.901Z,57.23
2022-12-29T20:53:57.013Z,57.16
2022-12-29T20:56:04.968Z,57.62
2022-12-29T20:58:23.898Z,57.35
2022-12-29T21:00:26.578Z,57.33
2022-12-29T21:02:28.813Z,57.02
2022-12-29T21:04:50.091Z,57.05
2022-12-29T21:06:54.072Z,56.77
2022-12-29T21:08:56.100Z,56.95
2022-12-29T21:12:14.302Z,57.27
2022-12-29T21:14:16.834Z,56.99
2022-12-29T21:16:21.313Z,56.99
2022-12-29T21:18:23.716Z,57.26
2022-12-29T21:20:32.224Z,57.14
2022-12-29T21:22:34.495Z,56.88
2022-12-29T21:24:37.935Z,56.49
2022-12-29T21:26:40.049Z,56.58
2022-12-29T21:28:43.759Z,56.57
2022-12-29T21:30:46.298Z,56.28
2022-12-29T21:32:48.796Z,56.19
2022-12-29T21:34:51.353Z,56.29
2022-12-29T21:36:53.841Z,56.22
2022-12-29T21:38:58.535Z,56.51
2022-12-29T21:41:08.460Z,56.62
2022-12-29T21:43:11.562Z,56.30
2022-12-29T21:45:25.702Z,56.30
2022-12-29T21:47:47.849Z,56.23
2022-12-29T21:49:49.961Z,56.11
2022-12-29T21:51:55.158Z,55.98
2022-12-29T21:54:19.872Z,56.15
2022-12-29T21:56:22.855Z,56.02
2022-12-29T21:58:45.276Z,56.62
2022-12-29T22:01:05.944Z,56.44
2022-12-29T22:03:26.740Z,56.60
2022-12-29T22:05:47.408Z,56.70
2022-12-29T22:08:11.580Z,56.91
2022-12-29T22:10:32.532Z,56.68
2022-12-29T22:12:53.072Z,56.77
2022-12-29T22:14:55.240Z,57.06
2022-12-29T22:16:58.707Z,56.83
2022-12-29T22:19:00.815Z,57.12
2022-12-29T22:21:08.494Z,57.31
2022-12-29T22:23:10.651Z,57.33
2022-12-29T22:25:12.951Z,57.55
2022-12-29T22:27:15.236Z,57.25
2022-12-29T22:29:17.184Z,57.36
2022-12-29T22:31:31.003Z,57.99
2022-12-29T22:33:33.384Z,57.56
2022-12-29T22:35:35.779Z,57.96
2022-12-29T22:37:39.353Z,58.13
2022-12-29T22:39:41.604Z,58.24
2022-12-29T22:41:43.742Z,58.17
2022-12-29T22:43:46.221Z,58.04
2022-12-29T22:45:48.274Z,58.30
2022-12-29T22:47:50.378Z,58.38
2022-12-29T22:49:52.507Z,58.59
2022-12-29T22:51:54.656Z,58.21
2022-12-29T22:53:56.816Z,58.49
2022-12-29T22:56:06.563Z,58.72
2022-12-29T22:58:08.754Z,58.59
2022-12-29T23:00:11.469Z,58.63
2022-12-29T23:02:13.666Z,58.71
2022-12-29T23:06:39.053Z,58.71
2022-12-29T23:08:41.392Z,59.08
2022-12-29T23:10:43.505Z,58.83
2022-12-29T23:12:45.422Z,59.16
2022-12-29T23:14:47.644Z,59.23
2022-12-29T23:16:49.564Z,59.33
2022-12-29T23:18:56.349Z,59.45
2022-12-29T23:20:59.219Z,59.52
2022-12-29T23:23:01.777Z,59.56
2022-12-29T23:25:06.306Z,59.87
2022-12-29T23:27:08.455Z,59.89
2022-12-29T23:29:13.782Z,60.02
2022-12-29T23:31:16.710Z,59.85
2022-12-29T23:33:19.377Z,60.41
2022-12-29T23:35:21.764Z,60.18
2022-12-29T23:37:23.823Z,60.03
2022-12-29T23:39:26.132Z,60.32
2022-12-29T23:41:28.802Z,59.98
2022-12-29T23:43:30.798Z,60.24
2022-12-29T23:45:36.105Z,60.44
2022-12-29T23:47:38.135Z,60.52
2022-12-29T23:49:40.292Z,60.44
2022-12-29T23:51:42.625Z,60.55
2022-12-29T23:53:45.712Z,60.22
2022-12-29T23:55:53.658Z,60.66
2022-12-29T23:57:55.627Z,60.33
2022-12-29T23:59:57.687Z,60.70
